createdAt,value
2019-05-03T00:00:17.321Z,94362.23
2019-05-03T00:03:07.446Z,94361.55
2019-05-03T00:05:38.580Z,94357.33
2019-05-03T00:08:08.790Z,94357.03
2019-05-03T00:10:39.100Z,94362.38
2019-05-03T00:13:09.023Z,94351.17
2019-05-03T00:15:46.093Z,94351.03
2019-05-03T00:18:15.576Z,94348.79
2019-05-03T00:20:45.061Z,94342.72
2019-05-03T00:23:14.523Z,94347.11
2019-05-03T00:25:44.020Z,94346.89
2019-05-03T00:28:13.500Z,94342.36
2019-05-03T00:30:42.982Z,94336.92
2019-05-03T00:33:12.530Z,94336.55
2019-05-03T00:35:52.864Z,94339.77
2019-05-03T00:38:22.449Z,94346.31
2019-05-03T00:40:52.345Z,94341.61
2019-05-03T00:43:22.234Z,94338.60
2019-05-03T00:45:51.828Z,94338.70
2019-05-03T00:48:21.942Z,94335.75
2019-05-03T00:50:51.825Z,94337.63
2019-05-03T00:53:22.411Z,94335.97
2019-05-03T00:55:52.617Z,94339.83
2019-05-03T00:58:22.522Z,94333.46
2019-05-03T01:00:52.569Z,94333.70
2019-05-03T01:03:22.519Z,94331.97
2019-05-03T01:05:52.953Z,94330.54
2019-05-03T01:08:22.555Z,94326.57
2019-05-03T01:10:52.027Z,94321.36
2019-05-03T01:13:21.954Z,94317.17
2019-05-03T01:15:53.165Z,94320.81
2019-05-03T01:18:23.027Z,94321.92
2019-05-03T01:20:52.502Z,94316.50
2019-05-03T01:23:22.047Z,94319.58
2019-05-03T01:25:51.746Z,94311.25
2019-05-03T01:28:21.668Z,94315.73
2019-05-03T01:30:51.945Z,94312.88
2019-05-03T01:33:22.634Z,94316.38
2019-05-03T01:35:52.134Z,94318.50
2019-05-03T01:38:22.686Z,94314.77
2019-05-03T01:40:52.334Z,94314.66
2019-05-03T01:43:22.244Z,94313.63
2019-05-03T01:45:52.014Z,94316.31
2019-05-03T01:48:23.205Z,94311.92
2019-05-03T01:51:11.790Z,94315.98
2019-05-03T01:53:42.031Z,94313.56
2019-05-03T01:56:11.855Z,94315.47
2019-05-03T01:58:41.760Z,94321.47
2019-05-03T02:01:16.798Z,94314.05
2019-05-03T02:04:03.017Z,94309.92
2019-05-03T02:06:32.486Z,94308.02
2019-05-03T02:09:01.975Z,94307.93
2019-05-03T02:11:32.614Z,94311.20
2019-05-03T02:14:02.137Z,94312.55
2019-05-03T02:16:32.498Z,94311.53
2019-05-03T02:19:02.534Z,94313.34
2019-05-03T02:21:32.261Z,94307.19
2019-05-03T02:24:02.580Z,94308.44
2019-05-03T02:26:32.144Z,94310.03
2019-05-03T02:29:01.895Z,94310.17
2019-05-03T02:31:32.734Z,94316.83
2019-05-03T02:34:03.493Z,94315.63
2019-05-03T02:36:33.879Z,94314.98
2019-05-03T02:39:05.167Z,94305.27
2019-05-03T02:41:34.878Z,94302.65
2019-05-03T02:44:06.273Z,94308.54
2019-05-03T02:46:56.332Z,94304.34
2019-05-03T02:49:27.676Z,94306.44
2019-05-03T02:51:57.201Z,94304.92
2019-05-03T02:54:27.230Z,94299.45
2019-05-03T02:56:56.895Z,94302.58
2019-05-03T02:59:26.636Z,94299.79
2019-05-03T03:01:56.662Z,94299.63
2019-05-03T03:04:27.074Z,94288.53
2019-05-03T03:06:58.377Z,94282.41
2019-05-03T03:09:28.713Z,94283.33
2019-05-03T03:12:00.546Z,94289.48
2019-05-03T03:14:33.057Z,94289.95
2019-05-03T03:17:06.607Z,94285.65
2019-05-03T03:19:38.660Z,94291.45
2019-05-03T03:22:11.204Z,94289.95
2019-05-03T03:24:45.809Z,94281.67
2019-05-03T03:27:20.905Z,94285.67
2019-05-03T03:29:55.323Z,94286.63
2019-05-03T03:32:30.108Z,94278.42
2019-05-03T03:35:12.146Z,94277.55
2019-05-03T03:37:38.460Z,94288.89
2019-05-03T03:40:08.930Z,94285.67
2019-05-03T03:42:40.848Z,94283.66
2019-05-03T03:45:10.641Z,94285.30
2019-05-03T03:47:40.129Z,94286.03
2019-05-03T03:50:10.135Z,94287.13
2019-05-03T03:52:42.210Z,94295.67
2019-05-03T03:55:11.916Z,94296.53
2019-05-03T03:57:42.058Z,94309.49
2019-05-03T04:00:12.885Z,94304.38
2019-05-03T04:02:42.451Z,94307.63
2019-05-03T04:05:12.158Z,94311.69
2019-05-03T04:07:41.717Z,94315.00
2019-05-03T04:10:11.547Z,94319.00
2019-05-03T04:12:45.300Z,94322.69
2019-05-03T04:15:31.149Z,94316.56
2019-05-03T04:18:05.631Z,94318.59
2019-05-03T04:20:36.847Z,94317.77
2019-05-03T04:23:07.486Z,94317.58
2019-05-03T04:25:37.129Z,94321.02
2019-05-03T04:28:06.817Z,94332.46
2019-05-03T04:30:36.774Z,94341.95
2019-05-03T04:33:07.242Z,94334.55
2019-05-03T04:35:36.878Z,94329.66
2019-05-03T04:38:06.490Z,94326.08
2019-05-03T04:40:36.160Z,94326.08
2019-05-03T04:43:06.185Z,94326.16
2019-05-03T04:45:36.893Z,94313.59
2019-05-03T04:48:06.975Z,94323.52
2019-05-03T04:50:37.153Z,94324.02
2019-05-03T04:53:06.788Z,94332.78
2019-05-03T04:55:36.693Z,94337.20
2019-05-03T04:58:06.143Z,94342.18
2019-05-03T05:00:36.095Z,94346.54
2019-05-03T05:03:06.162Z,94344.45
2019-05-03T05:05:36.415Z,94348.53
2019-05-03T05:08:06.489Z,94350.52
2019-05-03T05:10:36.393Z,94349.23
2019-05-03T05:13:06.024Z,94351.47
2019-05-03T05:15:35.702Z,94358.83
2019-05-03T05:18:12.888Z,94353.36
2019-05-03T05:20:45.384Z,94363.80
2019-05-03T05:23:14.970Z,94359.37
2019-05-03T05:26:00.957Z,94360.28
2019-05-03T05:28:30.178Z,94373.72
2019-05-03T05:30:59.731Z,94368.44
2019-05-03T05:33:29.332Z,94365.73
2019-05-03T05:35:58.806Z,94368.62
2019-05-03T05:38:28.298Z,94368.59
2019-05-03T05:40:57.901Z,94372.19
2019-05-03T05:43:27.398Z,94372.90
2019-05-03T05:45:58.850Z,94373.62
2019-05-03T05:48:35.394Z,94373.98
2019-05-03T05:51:04.881Z,94375.67
2019-05-03T05:53:35.870Z,94376.48
2019-05-03T05:56:07.127Z,94381.13
2019-05-03T05:58:38.307Z,94382.94
2019-05-03T06:01:15.358Z,94380.52
2019-05-03T06:03:44.968Z,94387.31
2019-05-03T06:06:16.021Z,94389.63
2019-05-03T06:08:49.627Z,94392.05
2019-05-03T06:11:32.384Z,94390.94
2019-05-03T06:14:05.876Z,94391.39
2019-05-03T06:16:48.828Z,94391.95
2019-05-03T06:19:22.675Z,94395.64
2019-05-03T06:22:08.602Z,94398.44
2019-05-03T06:24:55.559Z,94399.94
2019-05-03T06:27:26.692Z,94396.70
2019-05-03T06:29:57.799Z,94398.98
2019-05-03T06:32:29.280Z,94400.66
2019-05-03T06:34:58.768Z,94394.47
2019-05-03T06:37:42.025Z,94396.14
2019-05-03T06:40:12.108Z,94397.23
2019-05-03T06:42:52.370Z,94399.84
2019-05-03T06:45:14.711Z,94398.01
2019-05-03T06:47:45.919Z,94398.37
2019-05-03T06:50:19.631Z,94397.35
2019-05-03T06:52:46.878Z,94396.96
2019-05-03T06:55:16.415Z,94401.74
2019-05-03T06:57:49.605Z,94400.03
2019-05-03T07:00:27.574Z,94405.52
2019-05-03T07:02:59.577Z,94400.89
2019-05-03T07:05:28.841Z,94398.06
2019-05-03T07:08:15.930Z,94394.83
2019-05-03T07:10:54.857Z,94398.37
2019-05-03T07:13:25.470Z,94400.66
2019-05-03T07:15:56.028Z,94407.93
2019-05-03T07:18:25.552Z,94402.46
2019-05-03T07:20:57.157Z,94403.61
2019-05-03T07:23:26.813Z,94408.91
2019-05-03T07:25:56.296Z,94406.59
2019-05-03T07:28:25.782Z,94408.91
2019-05-03T07:30:55.271Z,94408.55
2019-05-03T07:33:29.354Z,94412.78
2019-05-03T07:35:58.840Z,94406.84
2019-05-03T07:38:28.338Z,94406.72
2019-05-03T07:40:58.046Z,94409.73
2019-05-03T07:43:27.614Z,94409.36
2019-05-03T07:45:57.133Z,94406.98
2019-05-03T07:48:26.615Z,94400.97
2019-05-03T07:50:56.090Z,94406.33
2019-05-03T07:53:25.590Z,94403.34
2019-05-03T07:56:00.430Z,94402.20
2019-05-03T07:58:31.587Z,94406.81
2019-05-03T08:01:07.180Z,94399.66
2019-05-03T08:03:34.845Z,94411.79
2019-05-03T08:06:05.052Z,94405.05
2019-05-03T08:08:35.420Z,94405.23
2019-05-03T08:11:05.386Z,94411.91
2019-05-03T08:13:35.616Z,94414.48
2019-05-03T08:16:06.014Z,94416.77
2019-05-03T08:18:35.701Z,94420.61
2019-05-03T08:21:05.898Z,94417.92
2019-05-03T08:23:35.702Z,94421.05
2019-05-03T08:26:06.042Z,94417.06
2019-05-03T08:28:36.483Z,94414.90
2019-05-03T08:31:15.061Z,94424.47
2019-05-03T08:33:46.389Z,94418.84
2019-05-03T08:36:15.882Z,94417.36
2019-05-03T08:38:45.363Z,94414.30
2019-05-03T08:41:22.262Z,94408.87
2019-05-03T08:43:51.769Z,94408.42
2019-05-03T08:46:21.259Z,94412.91
2019-05-03T08:48:50.769Z,94404.39
2019-05-03T08:51:20.259Z,94404.28
2019-05-03T08:53:49.740Z,94406.81
2019-05-03T08:56:19.214Z,94402.49
2019-05-03T08:58:48.708Z,94401.73
2019-05-03T09:01:18.359Z,94398.44
2019-05-03T09:03:47.857Z,94400.41
2019-05-03T09:06:17.340Z,94397.89
2019-05-03T09:08:46.879Z,94395.39
2019-05-03T09:11:24.937Z,94398.48
2019-05-03T09:13:50.294Z,94400.64
2019-05-03T09:16:19.903Z,94393.83
2019-05-03T09:18:49.479Z,94394.73
2019-05-03T09:21:18.985Z,94391.72
2019-05-03T09:23:48.476Z,94394.13
2019-05-03T09:26:18.011Z,94387.47
2019-05-03T09:28:47.490Z,94386.72
2019-05-03T09:31:17.173Z,94391.09
2019-05-03T09:33:46.704Z,94399.61
2019-05-03T09:36:16.190Z,94389.42
2019-05-03T09:38:46.010Z,94392.00
2019-05-03T09:41:16.703Z,94385.20
2019-05-03T09:43:46.180Z,94387.23
2019-05-03T09:46:15.674Z,94383.92
2019-05-03T09:48:45.623Z,94386.87
2019-05-03T09:51:15.170Z,94388.20
2019-05-03T09:53:56.102Z,94387.25
2019-05-03T09:56:52.829Z,94391.17
2019-05-03T09:59:14.817Z,94394.68
2019-05-03T10:01:45.630Z,94392.30
2019-05-03T10:04:17.931Z,94395.03
2019-05-03T10:06:46.522Z,94391.91
2019-05-03T10:09:16.117Z,94403.87
2019-05-03T10:11:46.260Z,94396.52
2019-05-03T10:14:16.124Z,94398.76
2019-05-03T10:16:50.282Z,94404.99
2019-05-03T10:19:19.794Z,94412.52
2019-05-03T10:21:49.274Z,94406.63
2019-05-03T10:24:18.753Z,94413.94
2019-05-03T10:26:48.286Z,94416.84
2019-05-03T10:29:17.781Z,94411.66
2019-05-03T10:31:54.676Z,94414.16
2019-05-03T10:34:24.800Z,94415.01
2019-05-03T10:36:54.883Z,94420.11
2019-05-03T10:39:26.285Z,94422.13
2019-05-03T10:41:55.629Z,94425.62
2019-05-03T10:44:25.113Z,94428.97
2019-05-03T10:46:55.887Z,94433.16
2019-05-03T10:49:25.461Z,94426.28
2019-05-03T10:52:02.258Z,94430.44
2019-05-03T10:54:31.772Z,94434.66
2019-05-03T10:57:05.136Z,94427.31
2019-05-03T10:59:35.559Z,94423.97
2019-05-03T11:02:06.839Z,94429.66
2019-05-03T11:04:36.374Z,94431.09
2019-05-03T11:07:06.028Z,94425.20
2019-05-03T11:09:48.069Z,94427.95
2019-05-03T11:12:08.469Z,94428.17
2019-05-03T11:14:37.952Z,94436.04
2019-05-03T11:17:07.440Z,94419.88
2019-05-03T11:19:36.960Z,94422.50
2019-05-03T11:22:06.503Z,94419.80
2019-05-03T11:24:36.713Z,94416.02
2019-05-03T11:27:13.590Z,94424.04
2019-05-03T11:29:45.090Z,94412.17
2019-05-03T11:32:19.411Z,94412.90
2019-05-03T11:34:50.594Z,94417.23
2019-05-03T11:37:19.830Z,94407.48
2019-05-03T11:39:50.566Z,94415.64
2019-05-03T11:42:20.064Z,94419.63
2019-05-03T11:44:49.615Z,94418.23
2019-05-03T11:47:19.108Z,94408.53
2019-05-03T11:49:48.627Z,94400.28
2019-05-03T11:52:18.186Z,94402.62
2019-05-03T11:54:47.698Z,94404.28
2019-05-03T11:57:29.392Z,94401.95
2019-05-03T11:59:58.869Z,94397.36
2019-05-03T12:02:29.094Z,94393.58
2019-05-03T12:05:12.161Z,94397.48
2019-05-03T12:07:41.643Z,94391.30
2019-05-03T12:10:26.927Z,94387.34
2019-05-03T12:12:45.334Z,94392.46
2019-05-03T12:15:15.217Z,94391.30
2019-05-03T12:17:54.393Z,94389.49
2019-05-03T12:20:19.187Z,94393.71
2019-05-03T12:22:49.403Z,94393.00
2019-05-03T12:25:20.353Z,94394.75
2019-05-03T12:27:50.416Z,94387.88
2019-05-03T12:30:19.915Z,94386.85
2019-05-03T12:32:49.562Z,94390.87
2019-05-03T12:35:19.100Z,94387.31
2019-05-03T12:37:49.190Z,94381.69
2019-05-03T12:40:18.720Z,94384.42
2019-05-03T12:42:48.226Z,94388.05
2019-05-03T12:45:17.710Z,94391.69
2019-05-03T12:47:47.187Z,94383.06
2019-05-03T12:50:18.868Z,94379.83
2019-05-03T12:52:50.333Z,94384.95
2019-05-03T12:55:19.676Z,94386.63
2019-05-03T12:57:49.167Z,94382.45
2019-05-03T13:00:25.096Z,94384.67
2019-05-03T13:02:56.314Z,94380.20
2019-05-03T13:05:25.975Z,94382.64
2019-05-03T13:08:15.260Z,94384.22
2019-05-03T13:10:45.470Z,94383.31
2019-05-03T13:13:14.968Z,94387.75
2019-05-03T13:15:44.803Z,94389.48
2019-05-03T13:18:15.661Z,94386.03
2019-05-03T13:20:45.471Z,94384.19
2019-05-03T13:23:14.939Z,94374.15
2019-05-03T13:25:44.854Z,94378.64
2019-05-03T13:28:15.311Z,94376.41
2019-05-03T13:30:45.246Z,94375.80
2019-05-03T13:33:15.304Z,94376.41
2019-05-03T13:35:44.835Z,94375.92
2019-05-03T13:38:14.366Z,94378.66
2019-05-03T13:40:45.301Z,94375.91
2019-05-03T13:43:15.229Z,94373.72
2019-05-03T13:45:45.156Z,94381.24
2019-05-03T13:48:15.575Z,94392.77
2019-05-03T13:50:45.877Z,94389.06
2019-05-03T13:53:16.162Z,94389.05
2019-05-03T13:55:45.738Z,94380.00
2019-05-03T13:58:15.200Z,94377.02
2019-05-03T14:00:45.371Z,94372.01
2019-05-03T14:03:15.390Z,94372.01
2019-05-03T14:05:44.842Z,94368.31
2019-05-03T14:08:15.781Z,94360.09
2019-05-03T14:10:45.749Z,94359.09
2019-05-03T14:13:15.261Z,94354.34
2019-05-03T14:15:45.309Z,94360.52
2019-05-03T14:18:15.396Z,94358.90
2019-05-03T14:20:55.469Z,94358.95
2019-05-03T14:23:25.351Z,94362.34
2019-05-03T14:25:55.292Z,94366.94
2019-05-03T14:28:25.193Z,94361.48
2019-05-03T14:30:54.992Z,94357.67
2019-05-03T14:33:25.305Z,94360.05
2019-05-03T14:35:55.705Z,94358.75
2019-05-03T14:38:25.508Z,94353.04
2019-05-03T14:40:55.256Z,94350.52
2019-05-03T14:43:25.008Z,94345.88
2019-05-03T14:45:55.073Z,94340.17
2019-05-03T14:48:24.949Z,94341.91
2019-05-03T14:50:57.271Z,94344.00
2019-05-03T14:53:25.727Z,94344.63
2019-05-03T14:55:59.838Z,94353.62
2019-05-03T14:58:46.892Z,94350.48
2019-05-03T15:01:18.055Z,94351.19
2019-05-03T15:03:47.745Z,94355.97
2019-05-03T15:06:17.224Z,94355.56
2019-05-03T15:08:46.715Z,94352.50
2019-05-03T15:11:16.197Z,94356.73
2019-05-03T15:13:45.705Z,94351.94
2019-05-03T15:16:15.209Z,94353.35
2019-05-03T15:18:45.384Z,94349.96
2019-05-03T15:21:14.980Z,94349.22
2019-05-03T15:23:45.345Z,94353.30
2019-05-03T15:26:14.971Z,94351.22
2019-05-03T15:28:44.887Z,94346.35
2019-05-03T15:31:14.423Z,94351.13
2019-05-03T15:33:44.940Z,94353.70
2019-05-03T15:36:15.436Z,94359.04
2019-05-03T15:38:45.052Z,94363.27
2019-05-03T15:41:14.768Z,94372.03
2019-05-03T15:43:48.836Z,94369.66
2019-05-03T15:46:25.045Z,94366.05
2019-05-03T15:49:04.535Z,94356.41
2019-05-03T15:51:33.720Z,94361.13
2019-05-03T15:54:04.541Z,94354.92
2019-05-03T15:56:34.090Z,94349.83
2019-05-03T15:59:04.468Z,94358.65
2019-05-03T16:01:35.306Z,94351.90
2019-05-03T16:04:04.944Z,94351.83
2019-05-03T16:06:34.494Z,94356.38
2019-05-03T16:09:05.346Z,94356.27
2019-05-03T16:11:35.071Z,94345.64
2019-05-03T16:14:05.496Z,94347.95
2019-05-03T16:16:35.429Z,94347.17
2019-05-03T16:19:05.504Z,94348.17
2019-05-03T16:21:36.807Z,94354.89
2019-05-03T16:24:06.438Z,94355.81
2019-05-03T16:26:37.581Z,94353.63
2019-05-03T16:29:08.710Z,94349.41
2019-05-03T16:31:38.227Z,94350.02
2019-05-03T16:34:07.733Z,94347.40
2019-05-03T16:36:37.204Z,94349.91
2019-05-03T16:39:07.607Z,94357.34
2019-05-03T16:41:37.103Z,94352.59
2019-05-03T16:44:06.629Z,94348.60
2019-05-03T16:46:36.114Z,94340.45
2019-05-03T16:49:06.555Z,94335.58
2019-05-03T16:51:36.126Z,94340.61
2019-05-03T16:54:05.734Z,94341.05
2019-05-03T16:56:35.390Z,94335.56
2019-05-03T16:59:05.781Z,94340.31
2019-05-03T17:01:35.447Z,94333.95
2019-05-03T17:04:16.177Z,94329.28
2019-05-03T17:06:47.305Z,94328.27
2019-05-03T17:09:29.895Z,94334.30
2019-05-03T17:12:09.540Z,94336.26
2019-05-03T17:14:39.009Z,94330.86
2019-05-03T17:17:08.505Z,94341.28
2019-05-03T17:19:37.995Z,94336.90
2019-05-03T17:22:07.467Z,94346.47
2019-05-03T17:24:36.999Z,94346.28
2019-05-03T17:27:06.501Z,94348.17
2019-05-03T17:29:36.646Z,94352.70
2019-05-03T17:32:06.185Z,94349.17
2019-05-03T17:34:35.680Z,94353.97
2019-05-03T17:37:05.241Z,94359.56
2019-05-03T17:39:40.342Z,94362.66
2019-05-03T17:42:20.258Z,94360.78
2019-05-03T17:44:50.908Z,94364.42
2019-05-03T17:47:20.433Z,94360.23
2019-05-03T17:49:50.101Z,94362.13
2019-05-03T17:52:27.250Z,94364.91
2019-05-03T17:54:58.359Z,94367.33
2019-05-03T17:57:29.484Z,94364.50
2019-05-03T18:00:00.595Z,94374.54
2019-05-03T18:02:40.741Z,94363.16
2019-05-03T18:05:28.178Z,94366.39
2019-05-03T18:08:16.230Z,94362.34
2019-05-03T18:10:47.383Z,94362.61
2019-05-03T18:13:16.880Z,94358.52
2019-05-03T18:15:46.990Z,94365.84
2019-05-03T18:18:16.712Z,94363.72
2019-05-03T18:20:46.192Z,94362.56
2019-05-03T18:23:15.702Z,94365.12
2019-05-03T18:25:45.217Z,94369.71
2019-05-03T18:28:15.380Z,94371.91
2019-05-03T18:30:45.464Z,94369.06
2019-05-03T18:33:15.420Z,94374.02
2019-05-03T18:35:44.954Z,94376.78
2019-05-03T18:38:14.890Z,94374.00
2019-05-03T18:40:44.952Z,94383.48
2019-05-03T18:43:25.181Z,94383.47
2019-05-03T18:46:01.720Z,94385.97
2019-05-03T18:48:31.192Z,94389.69
2019-05-03T18:51:00.685Z,94392.03
2019-05-03T18:53:30.297Z,94386.25
2019-05-03T18:55:59.789Z,94388.80
2019-05-03T18:58:29.387Z,94396.38
2019-05-03T19:00:58.945Z,94400.03
2019-05-03T19:03:28.532Z,94409.50
2019-05-03T19:06:05.439Z,94417.58
2019-05-03T19:08:40.877Z,94417.59
2019-05-03T19:11:21.205Z,94416.92
2019-05-03T19:13:58.233Z,94420.12
2019-05-03T19:16:29.507Z,94416.73
2019-05-03T19:18:59.569Z,94423.47
2019-05-03T19:21:29.043Z,94428.82
2019-05-03T19:23:58.597Z,94422.89
2019-05-03T19:26:28.134Z,94435.25
2019-05-03T19:28:57.615Z,94440.59
2019-05-03T19:31:27.706Z,94444.67
2019-05-03T19:33:57.181Z,94441.37
2019-05-03T19:36:26.769Z,94442.74
2019-05-03T19:38:56.246Z,94446.11
2019-05-03T19:41:25.817Z,94445.05
2019-05-03T19:43:55.303Z,94446.08
2019-05-03T19:46:24.987Z,94437.27
2019-05-03T19:48:54.746Z,94439.66
2019-05-03T19:51:24.262Z,94441.30
2019-05-03T19:53:55.312Z,94442.38
2019-05-03T19:56:25.629Z,94439.45
2019-05-03T19:58:56.984Z,94436.25
2019-05-03T20:01:26.236Z,94435.41
2019-05-03T20:04:10.153Z,94446.06
2019-05-03T20:06:57.181Z,94441.38
2019-05-03T20:09:27.855Z,94440.12
2019-05-03T20:11:57.357Z,94444.39
2019-05-03T20:14:26.844Z,94447.36
2019-05-03T20:16:56.351Z,94441.84
2019-05-03T20:19:25.884Z,94444.12
2019-05-03T20:21:56.692Z,94446.09
2019-05-03T20:24:26.280Z,94447.94
2019-05-03T20:26:55.768Z,94444.98
2019-05-03T20:29:25.247Z,94444.94
2019-05-03T20:31:55.263Z,94444.70
2019-05-03T20:34:25.021Z,94444.72
2019-05-03T20:39:40.569Z,94444.06
2019-05-03T20:42:10.054Z,94445.23
2019-05-03T20:44:56.660Z,94446.88
2019-05-03T20:50:19.037Z,94450.11
2019-05-03T20:52:48.546Z,94442.31
2019-05-03T20:55:18.092Z,94437.23
2019-05-03T20:57:47.598Z,94434.95
2019-05-03T21:00:21.792Z,94427.22
2019-05-03T21:02:54.124Z,94427.77
2019-05-03T21:05:27.873Z,94434.34
2019-05-03T21:10:45.761Z,94433.25
2019-05-03T21:13:41.946Z,94436.46
2019-05-03T21:16:23.397Z,94357.58
2019-05-03T21:18:54.505Z,94435.11
2019-05-03T21:21:28.176Z,94433.86
2019-05-03T21:23:59.273Z,94435.87
2019-05-03T21:26:28.751Z,94436.47
2019-05-03T21:28:58.244Z,94433.62
2019-05-03T21:31:27.724Z,94433.01
2019-05-03T21:33:57.240Z,94433.64
2019-05-03T21:36:26.725Z,94432.19
2019-05-03T21:38:56.214Z,94440.50
2019-05-03T21:41:25.753Z,94443.59
2019-05-03T21:43:55.228Z,94443.78
2019-05-03T21:46:25.557Z,94436.92
2019-05-03T21:49:04.391Z,94441.30
2019-05-03T21:51:34.587Z,94439.35
2019-05-03T21:54:06.572Z,94439.69
2019-05-03T21:56:35.736Z,94436.26
2019-05-03T21:59:06.459Z,94434.26
2019-05-03T22:01:37.847Z,94436.52
2019-05-03T22:04:07.307Z,94428.20
2019-05-03T22:06:36.811Z,94425.39
2019-05-03T22:09:06.724Z,94420.02
2019-05-03T22:11:36.226Z,94420.74
2019-05-03T22:14:07.381Z,94425.53
2019-05-03T22:16:42.059Z,94430.23
2019-05-03T22:19:11.575Z,94427.66
2019-05-03T22:21:45.378Z,94427.66
2019-05-03T22:24:22.319Z,94421.02
2019-05-03T22:26:53.414Z,94417.11
2019-05-03T22:29:25.227Z,94418.38
2019-05-03T22:31:54.867Z,94414.17
2019-05-03T22:34:25.818Z,94401.30
2019-05-03T22:36:55.558Z,94398.40
2019-05-03T22:39:25.266Z,94395.35
2019-05-03T22:41:54.765Z,94398.27
2019-05-03T22:44:25.320Z,94395.73
2019-05-03T22:46:55.296Z,94394.28
2019-05-03T22:49:25.919Z,94397.41
2019-05-03T22:51:55.617Z,94388.16
2019-05-03T22:54:25.187Z,94389.98
2019-05-03T22:56:55.465Z,94388.20
2019-05-03T22:59:25.434Z,94390.30
2019-05-03T23:01:55.058Z,94392.27
2019-05-03T23:04:25.239Z,94391.15
2019-05-03T23:06:55.706Z,94386.44
2019-05-03T23:09:25.328Z,94383.34
2019-05-03T23:11:55.409Z,94382.39
2019-05-03T23:14:25.598Z,94379.43
2019-05-03T23:16:55.105Z,94380.58
2019-05-03T23:19:24.594Z,94372.91
2019-05-03T23:21:58.435Z,94373.19
2019-05-03T23:24:27.909Z,94372.50
2019-05-03T23:26:57.392Z,94367.75
2019-05-03T23:29:27.443Z,94372.34
2019-05-03T23:31:56.972Z,94369.06
2019-05-03T23:34:26.428Z,94364.98
2019-05-03T23:36:55.935Z,94361.22
2019-05-03T23:39:25.418Z,94355.98
2019-05-03T23:41:55.870Z,94357.28
2019-05-03T23:44:25.334Z,94355.17
2019-05-03T23:46:56.457Z,94348.35
2019-05-03T23:49:26.128Z,94345.84
2019-05-03T23:51:57.240Z,94340.61
2019-05-03T23:54:26.719Z,94339.86
2019-05-03T23:56:56.239Z,94342.09
2019-05-03T23:59:25.734Z,94340.23
